Time;durP1;ratioP1;P1;durP2;ratioP2;P2;SDS_P1;SDS_P2;PMS_P1;PMS_P2;Temp;Humidity;BMP_temperature;BMP_pressure;BME280_temperature;BME280_humidity;BME280_pressure;Samples;Min_cycle;Max_cycle;Signal;HPM_P1;HPM_P2
2022/11/09 00:00:34;;;;;;;1.20;0.85;;;19.60;59.80;;;;;;6291628;28;20028;-67
2022/11/09 00:03:35;;;;;;;1.00;0.73;;;19.60;59.90;;;;;;6292071;28;20056;-67
2022/11/09 00:06:36;;;;;;;1.38;0.90;;;19.60;59.90;;;;;;6291521;28;20038;-67
2022/11/09 00:09:36;;;;;;;1.10;0.75;;;19.70;59.80;;;;;;6291672;28;20020;-67
2022/11/09 00:12:37;;;;;;;1.00;0.63;;;19.60;59.90;;;;;;6291588;28;20052;-66
2022/11/09 00:15:38;;;;;;;1.75;0.88;;;19.60;59.80;;;;;;6291670;28;20029;-66
2022/11/09 00:18:40;;;;;;;1.02;0.80;;;19.60;59.80;;;;;;6291776;28;20467;-68
2022/11/09 00:21:41;;;;;;;0.80;0.60;;;19.60;59.90;;;;;;6291470;28;20021;-68
2022/11/09 00:24:41;;;;;;;0.75;0.60;;;19.60;59.90;;;;;;6291624;28;20052;-66
2022/11/09 00:27:42;;;;;;;1.98;0.65;;;19.60;59.80;;;;;;6292095;28;20108;-67
2022/11/09 00:30:42;;;;;;;2.47;0.80;;;19.60;59.80;;;;;;6291269;28;20031;-66
2022/11/09 00:33:48;;;;;;;0.77;0.77;;;19.60;59.80;;;;;;6291581;28;20081;-66
2022/11/09 00:36:48;;;;;;;0.70;0.70;;;19.60;59.70;;;;;;6291053;28;20032;-66
2022/11/09 00:39:49;;;;;;;0.98;0.55;;;19.60;59.90;;;;;;6292071;28;20360;-67
2022/11/09 00:42:50;;;;;;;0.75;0.60;;;19.60;59.80;;;;;;6291062;28;20050;-67
2022/11/09 00:45:51;;;;;;;0.80;0.60;;;19.60;59.80;;;;;;6291208;28;20537;-68
2022/11/09 00:48:54;;;;;;;0.80;0.60;;;19.60;59.90;;;;;;6291124;28;20032;-67
2022/11/09 00:51:55;;;;;;;1.00;0.70;;;19.60;60.00;;;;;;6291225;28;20321;-67
2022/11/09 00:54:55;;;;;;;0.57;0.57;;;19.60;59.80;;;;;;6291462;28;20021;-67
2022/11/09 00:57:56;;;;;;;1.05;0.80;;;19.60;59.80;;;;;;6295697;28;20471;-67
2022/11/09 01:00:59;;;;;;;1.58;0.70;;;19.60;59.90;;;;;;6295780;28;20024;-67
2022/11/09 01:03:59;;;;;;;1.10;0.70;;;19.60;59.80;;;;;;6295575;28;20567;-67
2022/11/09 01:07:00;;;;;;;0.60;0.52;;;19.60;59.80;;;;;;6295731;28;20032;-67
2022/11/09 01:10:01;;;;;;;0.70;0.70;;;19.60;59.80;;;;;;6295402;28;20021;-67
2022/11/09 01:13:01;;;;;;;0.52;0.52;;;19.60;59.70;;;;;;6295305;28;20046;-67
2022/11/09 01:16:11;;;;;;;1.10;0.85;;;19.60;59.80;;;;;;6295062;28;20055;-66
2022/11/09 01:19:11;;;;;;;0.65;0.60;;;19.60;59.80;;;;;;6295482;28;20025;-67
2022/11/09 01:22:12;;;;;;;0.90;0.63;;;19.60;59.80;;;;;;6294722;28;20016;-67
2022/11/09 01:25:14;;;;;;;1.13;0.63;;;19.60;59.70;;;;;;6295252;28;20078;-68
2022/11/09 01:28:14;;;;;;;0.50;0.50;;;19.60;60.50;;;;;;6295072;28;20506;-68
2022/11/09 01:31:17;;;;;;;1.05;0.60;;;19.60;59.80;;;;;;6294871;28;20024;-67
2022/11/09 01:34:18;;;;;;;0.85;0.60;;;19.60;59.80;;;;;;6295397;28;20479;-67
2022/11/09 01:37:18;;;;;;;0.43;0.43;;;19.60;59.90;;;;;;6294864;28;20023;-67
2022/11/09 01:40:19;;;;;;;1.25;0.70;;;19.60;59.80;;;;;;6295140;28;20043;-67
2022/11/09 01:43:22;;;;;;;0.40;0.40;;;19.60;59.70;;;;;;6294626;28;20021;-67
2022/11/09 01:46:29;;;;;;;1.00;0.70;;;19.60;59.80;;;;;;6294183;28;20408;-67
2022/11/09 01:49:45;;;;;;;0.60;0.60;;;19.60;59.70;;;;;;6294648;28;20028;-67
2022/11/09 01:52:47;;;;;;;0.77;0.60;;;19.60;59.80;;;;;;6294268;28;20411;-68
2022/11/09 01:55:52;;;;;;;1.00;0.70;;;19.60;59.70;;;;;;6294161;28;20028;-66
2022/11/09 01:58:58;;;;;;;0.85;0.70;;;19.60;59.80;;;;;;6294579;28;20533;-67
2022/11/09 02:01:59;;;;;;;1.65;0.73;;;19.60;59.90;;;;;;6293957;28;20099;-68
2022/11/09 02:05:05;;;;;;;1.38;0.52;;;19.60;59.80;;;;;;6294357;28;20028;-67
2022/11/09 02:08:09;;;;;;;0.68;0.60;;;19.60;59.70;;;;;;6292839;28;20051;-67
2022/11/09 02:11:12;;;;;;;0.60;0.55;;;19.60;59.80;;;;;;6294132;28;20020;-66
2022/11/09 02:14:14;;;;;;;0.77;0.57;;;19.60;59.80;;;;;;6293464;28;20020;-68
2022/11/09 02:17:15;;;;;;;1.05;0.50;;;19.60;59.80;;;;;;6293383;28;20422;-67
2022/11/09 02:20:16;;;;;;;1.55;0.47;;;19.60;59.90;;;;;;6294221;28;20028;-66
2022/11/09 02:23:18;;;;;;;0.95;0.63;;;19.60;59.80;;;;;;6293601;28;20094;-67
2022/11/09 02:26:40;;;;;;;0.98;0.60;;;19.60;59.70;;;;;;6293587;28;20112;-67
2022/11/09 02:29:43;;;;;;;0.77;0.60;;;19.60;59.80;;;;;;6293564;28;20024;-67
2022/11/09 02:32:44;;;;;;;0.90;0.60;;;19.60;60.00;;;;;;6293380;28;20016;-67
2022/11/09 02:35:44;;;;;;;0.90;0.50;;;19.60;59.80;;;;;;6293438;28;20070;-67
2022/11/09 02:38:45;;;;;;;0.80;0.60;;;19.60;59.80;;;;;;6293539;28;20032;-67
2022/11/09 02:41:52;;;;;;;1.00;0.65;;;19.60;59.70;;;;;;6293126;28;20028;-67
2022/11/09 02:44:57;;;;;;;0.80;0.50;;;19.60;59.90;;;;;;6292929;28;20028;-67
2022/11/09 02:47:57;;;;;;;0.70;0.50;;;19.60;59.70;;;;;;6292771;28;20066;-67
2022/11/09 02:50:58;;;;;;;0.70;0.50;;;19.60;59.80;;;;;;6293184;28;20048;-67
2022/11/09 02:53:58;;;;;;;0.57;0.50;;;19.60;59.80;;;;;;6292908;28;20040;-67
2022/11/09 02:56:59;;;;;;;0.70;0.70;;;19.60;59.70;;;;;;6292863;28;20480;-67
2022/11/09 03:00:00;;;;;;;1.15;0.70;;;19.60;59.70;;;;;;6293131;28;20036;-66
2022/11/09 03:03:01;;;;;;;0.80;0.70;;;19.60;60.60;;;;;;6308000;28;20024;-66
2022/11/09 03:06:01;;;;;;;0.50;0.43;;;19.60;59.80;;;;;;6292980;28;20056;-67
2022/11/09 03:09:04;;;;;;;1.23;0.60;;;19.60;59.70;;;;;;6291874;28;20029;-67
2022/11/09 03:12:27;;;;;;;3.60;0.60;;;19.60;59.70;;;;;;6308115;28;20098;-66
2022/11/09 03:15:25;;;;;;;0.88;0.60;;;19.60;59.70;;;;;;6292427;28;20036;-67
2022/11/09 03:18:26;;;;;;;0.93;0.55;;;19.60;59.70;;;;;;6292047;28;20059;-67
2022/11/09 03:21:27;;;;;;;0.77;0.60;;;19.60;59.70;;;;;;6292420;28;20085;-67
2022/11/09 03:24:28;;;;;;;1.00;0.70;;;19.60;59.70;;;;;;6292602;28;20032;-67
2022/11/09 03:27:28;;;;;;;0.52;0.52;;;19.60;59.80;;;;;;6292038;28;20113;-67
2022/11/09 03:30:29;;;;;;;0.80;0.50;;;19.60;59.70;;;;;;6292140;28;20035;-66
2022/11/09 03:33:30;;;;;;;0.60;0.60;;;19.60;59.70;;;;;;6292159;28;20458;-67
2022/11/09 03:36:30;;;;;;;0.60;0.50;;;19.60;59.90;;;;;;6292484;28;20049;-67
2022/11/09 03:39:32;;;;;;;0.57;0.52;;;19.60;59.70;;;;;;6292045;28;20139;-67
2022/11/09 03:42:32;;;;;;;0.40;0.40;;;19.60;59.90;;;;;;6291937;28;20486;-67
2022/11/09 03:45:33;;;;;;;0.65;0.60;;;19.60;59.70;;;;;;6291884;28;20028;-67
2022/11/09 03:48:34;;;;;;;0.40;0.40;;;19.60;59.70;;;;;;6291844;28;20036;-67
2022/11/09 03:51:34;;;;;;;0.30;0.30;;;19.60;59.80;;;;;;6292506;28;20271;-67
2022/11/09 03:54:35;;;;;;;1.00;0.65;;;19.60;59.70;;;;;;6291583;28;20059;-67
2022/11/09 03:57:35;;;;;;;0.57;0.47;;;19.60;59.70;;;;;;6291845;28;20092;-66
2022/11/09 04:00:36;;;;;;;1.27;0.50;;;19.60;59.80;;;;;;6291962;28;20058;-67
2022/11/09 04:03:37;;;;;;;0.68;0.65;;;19.60;59.80;;;;;;6291881;28;20043;-66
2022/11/09 04:06:37;;;;;;;0.75;0.50;;;19.60;59.70;;;;;;6291994;28;20032;-67
2022/11/09 04:09:38;;;;;;;0.55;0.50;;;19.60;59.70;;;;;;6291556;28;20028;-67
2022/11/09 04:12:39;;;;;;;0.60;0.50;;;19.60;59.80;;;;;;6291768;28;20115;-67
2022/11/09 04:15:39;;;;;;;0.57;0.50;;;19.60;59.70;;;;;;6291991;28;20025;-67
2022/11/09 04:18:40;;;;;;;0.98;0.50;;;19.60;59.70;;;;;;6290390;28;20475;-67
2022/11/09 04:21:40;;;;;;;0.82;0.63;;;19.60;59.70;;;;;;6291793;28;20036;-68
2022/11/09 04:24:41;;;;;;;0.68;0.50;;;19.60;59.80;;;;;;6291454;28;20251;-67
2022/11/09 04:27:42;;;;;;;0.95;0.50;;;19.60;59.70;;;;;;6291321;28;20498;-67
2022/11/09 04:30:42;;;;;;;0.95;0.50;;;19.60;59.80;;;;;;6293125;28;20039;-66
2022/11/09 04:33:43;;;;;;;0.55;0.40;;;19.60;59.80;;;;;;6296421;28;20051;-67
2022/11/09 04:36:43;;;;;;;0.73;0.60;;;19.60;59.70;;;;;;6296501;28;20395;-67
2022/11/09 04:39:44;;;;;;;0.50;0.40;;;19.60;59.70;;;;;;6296181;28;20024;-67
2022/11/09 04:42:45;;;;;;;0.43;0.40;;;19.60;59.70;;;;;;6296121;28;20033;-66
2022/11/09 04:45:46;;;;;;;0.57;0.40;;;19.60;59.80;;;;;;6295806;28;20038;-67
2022/11/09 04:48:46;;;;;;;0.40;0.40;;;19.60;59.70;;;;;;6295280;28;20275;-67
2022/11/09 04:51:47;;;;;;;0.70;0.55;;;19.60;59.80;;;;;;6295932;28;20079;-67
2022/11/09 04:54:48;;;;;;;0.60;0.52;;;19.60;59.80;;;;;;6295891;28;20028;-67
2022/11/09 04:57:49;;;;;;;0.47;0.47;;;19.60;59.70;;;;;;6296131;28;20045;-67
2022/11/09 05:00:50;;;;;;;0.70;0.57;;;19.60;59.80;;;;;;6295628;28;20035;-67
2022/11/09 05:03:51;;;;;;;0.95;0.52;;;19.60;59.80;;;;;;6295685;28;20031;-67
2022/11/09 05:06:51;;;;;;;0.73;0.55;;;19.60;59.80;;;;;;6295730;28;20032;-67
2022/11/09 05:09:52;;;;;;;0.45;0.43;;;19.60;59.80;;;;;;6295510;28;20476;-67
2022/11/09 05:13:00;;;;;;;0.35;0.35;;;19.60;59.80;;;;;;6295563;28;20480;-67
2022/11/09 05:16:01;;;;;;;0.68;0.60;;;19.60;59.70;;;;;;6294810;28;20493;-67
2022/11/09 05:19:02;;;;;;;0.90;0.50;;;19.60;59.70;;;;;;6295904;28;20042;-67
2022/11/09 05:25:22;;;;;;;0.50;0.40;;;19.60;59.80;;;;;;6294906;28;20419;-66
2022/11/09 05:28:22;;;;;;;0.50;0.50;;;19.60;59.80;;;;;;6295039;28;20035;-65
2022/11/09 05:31:23;;;;;;;1.08;0.60;;;19.60;59.80;;;;;;6295254;28;20028;-66
2022/11/09 05:34:23;;;;;;;0.50;0.40;;;19.60;59.80;;;;;;6294403;28;20516;-66
2022/11/09 05:37:24;;;;;;;0.77;0.60;;;19.60;59.80;;;;;;6295138;28;20047;-65
2022/11/09 05:40:25;;;;;;;0.60;0.52;;;19.60;60.00;;;;;;6294519;28;20024;-66
2022/11/09 05:43:25;;;;;;;1.35;0.45;;;19.60;59.90;;;;;;6294098;28;20053;-65
2022/11/09 05:46:26;;;;;;;0.65;0.60;;;19.60;59.90;;;;;;6294654;28;20032;-66
2022/11/09 05:49:27;;;;;;;0.30;0.30;;;19.60;59.80;;;;;;6294643;28;20467;-66
2022/11/09 05:52:27;;;;;;;0.63;0.47;;;19.60;59.90;;;;;;6294533;28;20533;-66
2022/11/09 05:55:28;;;;;;;0.50;0.50;;;19.60;59.80;;;;;;6292936;28;20044;-65
2022/11/09 05:58:29;;;;;;;0.50;0.50;;;19.60;59.80;;;;;;6294570;28;20143;-66
2022/11/09 06:01:30;;;;;;;0.85;0.50;;;19.60;59.80;;;;;;6286697;28;20056;-67
2022/11/09 06:04:30;;;;;;;0.50;0.50;;;19.60;59.80;;;;;;6271024;28;20032;-66
2022/11/09 06:07:32;;;;;;;0.70;0.57;;;19.60;59.80;;;;;;6294422;28;20064;-66
2022/11/09 06:10:33;;;;;;;0.73;0.60;;;19.60;59.80;;;;;;6293650;28;20031;-66
2022/11/09 06:13:34;;;;;;;2.00;0.68;;;19.60;59.80;;;;;;6293917;28;20484;-66
2022/11/09 06:16:35;;;;;;;0.85;0.50;;;19.60;59.70;;;;;;6293732;28;20095;-67
2022/11/09 06:19:36;;;;;;;1.17;0.50;;;19.60;59.70;;;;;;6293901;28;20052;-66
2022/11/09 06:22:36;;;;;;;0.68;0.60;;;19.60;59.80;;;;;;6293887;28;20495;-67
2022/11/09 06:25:37;;;;;;;0.50;0.50;;;19.60;59.70;;;;;;6293691;28;20367;-67
2022/11/09 06:28:38;;;;;;;0.68;0.60;;;19.60;59.80;;;;;;6293411;28;20024;-67
2022/11/09 06:31:39;;;;;;;0.30;0.30;;;19.60;59.70;;;;;;6287644;28;20487;-67
2022/11/09 06:34:42;;;;;;;0.90;0.52;;;19.60;59.90;;;;;;6278687;28;20017;-67
2022/11/09 06:37:42;;;;;;;0.90;0.70;;;19.60;59.80;;;;;;6277414;28;20194;-66
2022/11/09 06:40:43;;;;;;;1.20;0.82;;;19.60;59.80;;;;;;6292113;28;20020;-66
2022/11/09 06:43:43;;;;;;;0.77;0.50;;;19.60;59.90;;;;;;6291901;28;20060;-67
2022/11/09 06:46:44;;;;;;;0.63;0.50;;;19.60;59.80;;;;;;6285551;28;20067;-67
2022/11/09 06:49:45;;;;;;;1.30;0.57;;;19.60;59.80;;;;;;6289065;28;20553;-67
2022/11/09 06:52:45;;;;;;;0.80;0.70;;;19.60;59.80;;;;;;6291027;28;20382;-67
2022/11/09 06:55:47;;;;;;;2.50;0.60;;;19.60;59.90;;;;;;6291637;28;20029;-65
2022/11/09 06:58:47;;;;;;;1.13;0.73;;;19.60;59.80;;;;;;6291640;28;20064;-67
2022/11/09 07:01:48;;;;;;;1.27;0.50;;;19.60;59.80;;;;;;6287096;28;20024;-68
2022/11/09 07:04:52;;;;;;;1.67;0.65;;;19.60;59.90;;;;;;6293322;28;20064;-68
2022/11/09 07:07:52;;;;;;;0.93;0.50;;;19.60;60.00;;;;;;6283858;28;20032;-67
2022/11/09 07:10:53;;;;;;;1.15;0.77;;;19.60;59.80;;;;;;6293787;28;20024;-68
2022/11/09 07:13:53;;;;;;;4.45;0.77;;;19.60;59.90;;;;;;6293442;28;20024;-67
2022/11/09 07:16:54;;;;;;;1.00;0.60;;;19.60;59.90;;;;;;6293208;28;20028;-67
2022/11/09 07:19:55;;;;;;;2.15;0.63;;;19.60;59.80;;;;;;6293015;28;20036;-67
2022/11/09 07:22:55;;;;;;;0.90;0.70;;;19.60;59.90;;;;;;6292870;28;20058;-67
2022/11/09 07:25:58;;;;;;;0.80;0.70;;;19.60;60.00;;;;;;6292982;28;20032;-67
2022/11/09 07:28:59;;;;;;;4.32;0.60;;;19.60;59.90;;;;;;6280493;28;20535;-67
2022/11/09 07:31:59;;;;;;;1.13;0.73;;;19.60;60.00;;;;;;6293457;28;20027;-67
2022/11/09 07:35:00;;;;;;;1.00;0.60;;;19.60;60.00;;;;;;6293223;28;20070;-68
2022/11/09 07:38:01;;;;;;;0.63;0.40;;;19.60;60.00;;;;;;6293153;28;20340;-67
2022/11/09 07:41:01;;;;;;;1.77;0.63;;;19.60;60.10;;;;;;6293323;28;20024;-67
2022/11/09 07:44:02;;;;;;;1.00;0.70;;;19.60;60.10;;;;;;6292608;28;20532;-67
2022/11/09 07:47:03;;;;;;;1.67;0.73;;;19.60;60.00;;;;;;6292942;28;20082;-67
2022/11/09 07:50:04;;;;;;;1.02;0.70;;;19.60;60.00;;;;;;6292647;28;20093;-67
2022/11/09 07:53:06;;;;;;;0.80;0.60;;;19.60;60.20;;;;;;6293900;28;20590;-67
2022/11/09 07:56:06;;;;;;;2.50;0.68;;;19.60;60.00;;;;;;6292569;28;20021;-67
2022/11/09 07:59:07;;;;;;;2.28;0.80;;;19.70;60.20;;;;;;6293330;28;20016;-67
2022/11/09 08:02:09;;;;;;;1.60;0.70;;;19.70;60.00;;;;;;6287900;28;20494;-67
2022/11/09 08:05:09;;;;;;;1.23;0.88;;;19.70;59.90;;;;;;6278884;28;20396;-67
2022/11/09 08:08:10;;;;;;;1.10;0.80;;;19.70;59.90;;;;;;6293270;28;20025;-67
2022/11/09 08:11:11;;;;;;;2.60;1.20;;;19.80;59.70;;;;;;6284750;28;20495;-67
2022/11/09 08:14:12;;;;;;;2.17;1.00;;;19.80;59.50;;;;;;6285793;28;20029;-66
2022/11/09 08:17:13;;;;;;;3.05;1.13;;;19.90;59.50;;;;;;6276067;28;20108;-66
2022/11/09 08:20:14;;;;;;;1.70;1.05;;;19.90;59.30;;;;;;6282694;28;20029;-66
2022/11/09 08:23:17;;;;;;;2.55;1.05;;;19.90;59.20;;;;;;6283691;28;20020;-67
2022/11/09 08:26:17;;;;;;;2.80;1.30;;;19.90;59.20;;;;;;6297740;28;20123;-67
2022/11/09 08:29:18;;;;;;;2.17;1.20;;;20.00;59.20;;;;;;6297957;28;20021;-67
2022/11/09 08:32:18;;;;;;;3.72;1.70;;;20.00;59.20;;;;;;6295660;28;20025;-67
2022/11/09 08:35:22;;;;;;;2.42;1.38;;;20.00;59.10;;;;;;6280244;28;20025;-67
2022/11/09 08:38:23;;;;;;;3.63;1.40;;;20.00;59.10;;;;;;6278232;28;20468;-67
2022/11/09 08:41:24;;;;;;;3.85;1.40;;;20.00;58.90;;;;;;6290865;28;20092;-67
2022/11/09 08:44:24;;;;;;;3.92;1.75;;;20.00;59.10;;;;;;6298883;28;20067;-66
2022/11/09 08:47:25;;;;;;;5.35;1.42;;;20.00;59.20;;;;;;6297963;28;20103;-67
2022/11/09 08:50:28;;;;;;;3.33;1.42;;;20.00;59.40;;;;;;6298454;28;20495;-67
2022/11/09 08:53:29;;;;;;;2.45;1.27;;;20.00;59.50;;;;;;6290746;28;20035;-67
2022/11/09 08:56:29;;;;;;;2.45;1.27;;;19.90;59.50;;;;;;6298551;28;20379;-68
2022/11/09 08:59:30;;;;;;;2.75;1.30;;;19.90;59.60;;;;;;6298754;28;20031;-66
2022/11/09 09:02:31;;;;;;;2.70;1.50;;;19.90;59.80;;;;;;6298333;28;20104;-67
2022/11/09 09:05:33;;;;;;;2.97;1.60;;;19.90;59.70;;;;;;6297953;28;20063;-67
2022/11/09 09:08:34;;;;;;;3.05;1.50;;;19.90;59.70;;;;;;6298314;28;20483;-67
2022/11/09 09:11:34;;;;;;;4.05;1.40;;;19.90;59.80;;;;;;6297377;28;20084;-66
2022/11/09 09:14:35;;;;;;;4.25;1.40;;;19.90;59.90;;;;;;6294979;28;20054;-68
2022/11/09 09:17:36;;;;;;;6.28;1.38;;;19.90;60.70;;;;;;6294738;28;20020;-67
2022/11/09 09:20:36;;;;;;;2.63;1.20;;;19.90;60.00;;;;;;6296424;28;20066;-65
2022/11/09 09:23:37;;;;;;;1.90;1.00;;;19.90;59.90;;;;;;6295844;28;20028;-67
2022/11/09 09:26:38;;;;;;;4.13;1.60;;;19.90;60.00;;;;;;6296217;28;20079;-67
2022/11/09 09:29:38;;;;;;;3.45;1.35;;;19.90;59.90;;;;;;6296150;28;20357;-67
2022/11/09 09:32:39;;;;;;;2.47;1.45;;;19.90;59.80;;;;;;6295964;28;20016;-67
2022/11/09 09:35:40;;;;;;;3.15;1.40;;;19.90;59.90;;;;;;6282689;28;20121;-68
2022/11/09 09:38:40;;;;;;;3.45;1.50;;;19.90;60.00;;;;;;6288796;28;20514;-67
2022/11/09 09:42:03;;;;;;;2.88;1.40;;;19.90;60.00;;;;;;6295567;28;20429;-67
2022/11/09 09:45:24;;;;;;;2.85;1.30;;;19.90;60.00;;;;;;6295402;28;20379;-67
2022/11/09 09:48:30;;;;;;;2.80;1.45;;;19.90;60.00;;;;;;6274195;28;20384;-67
2022/11/09 09:51:40;;;;;;;1.95;1.25;;;19.80;60.00;;;;;;6295055;28;20188;-67
2022/11/09 09:54:56;;;;;;;1.98;1.10;;;19.80;60.10;;;;;;6279887;28;20021;-67
2022/11/09 09:58:05;;;;;;;1.80;1.02;;;19.80;60.00;;;;;;6290699;28;20100;-67
2022/11/09 10:01:15;;;;;;;3.10;1.42;;;19.80;60.10;;;;;;6294908;28;20120;-67
2022/11/09 10:04:31;;;;;;;3.33;1.30;;;19.80;60.10;;;;;;6295109;28;20028;-67
2022/11/09 10:07:42;;;;;;;2.40;1.25;;;19.80;60.20;;;;;;6295049;28;20521;-67
2022/11/09 10:11:17;;;;;;;2.05;1.20;;;19.80;60.20;;;;;;6290380;28;20040;-66
2022/11/09 10:14:39;;;;;;;2.35;1.40;;;19.80;60.20;;;;;;6276304;28;20062;-67
2022/11/09 10:18:25;;;;;;;2.20;1.10;;;19.80;60.20;;;;;;6294621;28;20020;-66
2022/11/09 10:21:39;;;;;;;2.70;1.20;;;19.80;60.30;;;;;;6273625;28;20042;-66
2022/11/09 10:25:04;;;;;;;3.03;1.15;;;19.80;60.30;;;;;;6294287;28;20028;-67
2022/11/09 10:28:13;;;;;;;2.38;1.25;;;19.80;60.30;;;;;;6293268;28;20083;-67
2022/11/09 10:31:19;;;;;;;1.55;1.10;;;19.80;60.20;;;;;;6294857;28;20436;-66
2022/11/09 10:34:32;;;;;;;1.63;1.10;;;19.80;60.30;;;;;;6294387;28;20465;-66
2022/11/09 10:37:40;;;;;;;1.98;1.15;;;19.80;60.40;;;;;;6294413;28;20591;-67
2022/11/09 10:40:44;;;;;;;2.85;1.30;;;19.80;60.40;;;;;;6294508;28;20024;-66
2022/11/09 10:43:44;;;;;;;1.70;0.90;;;19.80;60.30;;;;;;6293984;28;20021;-67
2022/11/09 10:47:21;;;;;;;3.13;1.20;;;19.80;60.40;;;;;;6293306;28;20491;-67
2022/11/09 10:50:22;;;;;;;2.80;1.10;;;19.80;60.40;;;;;;6279849;28;20037;-67
2022/11/09 10:53:25;;;;;;;1.50;1.00;;;19.80;60.40;;;;;;6281283;28;20492;-67
2022/11/09 10:56:26;;;;;;;3.60;1.20;;;19.80;60.40;;;;;;6275916;28;20068;-66
2022/11/09 10:59:43;;;;;;;2.45;0.95;;;19.70;60.30;;;;;;6290359;28;20491;-67
2022/11/09 11:02:46;;;;;;;5.57;1.50;;;19.80;60.60;;;;;;6293872;28;20028;-66
2022/11/09 11:05:59;;;;;;;3.75;1.23;;;19.80;60.40;;;;;;6293656;28;20029;-67
2022/11/09 11:09:00;;;;;;;2.17;1.15;;;19.80;60.50;;;;;;6291590;28;20048;-66
2022/11/09 11:12:21;;;;;;;1.70;1.05;;;19.80;60.60;;;;;;6268071;28;20041;-67
2022/11/09 11:15:23;;;;;;;1.98;1.17;;;19.80;60.50;;;;;;6280217;28;20024;-67
2022/11/09 11:18:25;;;;;;;1.50;0.80;;;19.80;60.60;;;;;;6290786;28;20028;-67
2022/11/09 11:21:27;;;;;;;1.45;0.90;;;19.80;60.40;;;;;;6267983;28;20482;-67
2022/11/09 11:24:59;;;;;;;1.80;1.10;;;19.80;60.50;;;;;;6286192;28;20027;-68
2022/11/09 11:28:12;;;;;;;4.10;1.00;;;19.80;60.60;;;;;;6274315;28;20048;-66
2022/11/09 11:31:16;;;;;;;1.73;1.10;;;19.80;60.60;;;;;;6293569;28;20025;-67
2022/11/09 11:34:17;;;;;;;1.60;1.08;;;19.80;60.60;;;;;;6293146;28;20048;-67
2022/11/09 11:37:48;;;;;;;1.98;1.10;;;19.80;60.70;;;;;;6293064;28;20036;-65
2022/11/09 11:41:15;;;;;;;1.75;0.88;;;19.80;60.70;;;;;;6286321;28;20383;-66
2022/11/09 11:44:40;;;;;;;2.80;1.08;;;19.80;60.60;;;;;;6265751;28;20041;-66
2022/11/09 11:48:04;;;;;;;1.50;1.00;;;19.80;60.70;;;;;;6278725;28;20216;-67
2022/11/09 11:51:14;;;;;;;2.90;1.08;;;19.70;60.60;;;;;;6293713;28;20053;-67
2022/11/09 11:54:45;;;;;;;2.65;0.85;;;19.70;60.60;;;;;;6292861;28;20518;-66
2022/11/09 11:57:48;;;;;;;2.10;1.20;;;19.70;60.60;;;;;;6292724;28;20495;-67
2022/11/09 12:01:14;;;;;;;1.38;0.93;;;19.70;60.70;;;;;;6292998;28;20058;-67
2022/11/09 12:04:33;;;;;;;;;;;19.70;60.60;;;;;;6292956;28;20475;-66
2022/11/09 12:08:03;;;;;;;2.33;1.27;;;19.70;60.70;;;;;;6292974;28;19987;-67
2022/11/09 12:11:38;;;;;;;2.10;1.10;;;19.70;60.70;;;;;;6288641;28;21317;-68
2022/11/09 12:14:54;;;;;;;1.70;0.90;;;19.70;60.70;;;;;;6292230;28;20033;-67
2022/11/09 12:18:07;;;;;;;;;;;19.70;60.70;;;;;;6292909;28;20474;-67
2022/11/09 12:21:27;;;;;;;1.27;0.90;;;19.70;60.80;;;;;;6292214;28;19908;-67
2022/11/09 12:24:38;;;;;;;1.38;0.90;;;19.70;60.80;;;;;;6291835;28;20395;-66
2022/11/09 12:28:00;;;;;;;1.15;0.90;;;19.70;60.80;;;;;;6284407;28;20122;-66
2022/11/09 12:31:33;;;;;;;1.67;0.93;;;19.70;60.80;;;;;;6292527;28;20036;-65
2022/11/09 12:34:43;;;;;;;2.42;1.20;;;19.70;60.80;;;;;;6292672;28;20021;-66
2022/11/09 12:38:07;;;;;;;1.35;0.90;;;19.70;60.90;;;;;;6290897;28;20051;-66
2022/11/09 12:41:14;;;;;;;1.17;0.82;;;19.70;60.80;;;;;;6283769;28;20048;-66
2022/11/09 12:44:30;;;;;;;1.38;0.90;;;19.70;60.80;;;;;;6292411;28;20020;-66
2022/11/09 12:47:40;;;;;;;2.97;1.00;;;19.70;60.90;;;;;;6277705;28;20058;-68
2022/11/09 12:50:41;;;;;;;2.00;0.85;;;19.80;60.90;;;;;;6280403;28;20179;-66
2022/11/09 12:53:42;;;;;;;4.22;0.82;;;19.90;60.70;;;;;;6291456;28;20047;-66
2022/11/09 12:56:58;;;;;;;1.70;0.70;;;19.90;60.70;;;;;;6292775;28;20044;-66
2022/11/09 13:00:00;;;;;;;3.13;0.75;;;19.90;60.70;;;;;;6296784;28;20031;-67
2022/11/09 13:03:12;;;;;;;1.45;0.90;;;19.80;60.80;;;;;;6296823;28;20021;-67
2022/11/09 13:06:15;;;;;;;6.10;1.00;;;19.80;60.80;;;;;;6296644;28;20437;-66
2022/11/09 13:09:22;;;;;;;2.58;0.90;;;19.80;60.90;;;;;;6296399;28;20029;-67
2022/11/09 13:12:41;;;;;;;1.52;0.90;;;19.70;60.80;;;;;;6286090;28;20024;-68
2022/11/09 13:16:07;;;;;;;2.45;0.93;;;19.70;60.80;;;;;;6296543;28;20056;-67
2022/11/09 13:19:08;;;;;;;0.88;0.70;;;19.70;60.80;;;;;;6296141;28;20478;-67
2022/11/09 13:22:14;;;;;;;3.72;0.80;;;19.80;61.10;;;;;;6296496;28;20056;-67
2022/11/09 13:25:49;;;;;;;1.35;0.90;;;19.80;61.00;;;;;;6294813;28;20238;-66
2022/11/09 13:29:08;;;;;;;1.77;0.82;;;19.80;61.00;;;;;;6289430;28;20037;-67
2022/11/09 13:32:11;;;;;;;1.58;1.00;;;19.80;61.00;;;;;;6296128;28;20028;-67
2022/11/09 13:35:40;;;;;;;1.92;0.70;;;19.80;61.00;;;;;;6293377;28;20096;-65
2022/11/09 13:38:41;;;;;;;2.05;0.85;;;19.70;60.90;;;;;;6294696;28;20229;-67
2022/11/09 13:41:43;;;;;;;1.83;0.70;;;19.70;61.00;;;;;;6295049;28;20024;-66
2022/11/09 13:44:43;;;;;;;2.83;0.75;;;19.70;61.00;;;;;;6295021;28;20029;-67
2022/11/09 13:47:51;;;;;;;0.93;0.60;;;19.70;60.90;;;;;;6295294;28;20484;-67
2022/11/09 13:50:54;;;;;;;1.15;0.70;;;19.70;61.10;;;;;;6294594;28;20445;-67
2022/11/09 13:53:57;;;;;;;1.42;0.80;;;19.70;60.90;;;;;;6295254;28;20364;-67
2022/11/09 13:57:03;;;;;;;2.90;1.00;;;19.70;61.00;;;;;;6294992;28;20025;-67
2022/11/09 14:00:05;;;;;;;1.23;0.65;;;19.70;60.90;;;;;;6295065;28;20212;-67
2022/11/09 14:03:18;;;;;;;0.93;0.70;;;19.70;60.90;;;;;;6294174;28;20131;-66
2022/11/09 14:06:19;;;;;;;1.98;0.80;;;19.70;61.00;;;;;;6294585;28;20416;-68
2022/11/09 14:09:19;;;;;;;1.58;0.77;;;19.70;60.80;;;;;;6294573;28;20032;-67
2022/11/09 14:12:43;;;;;;;1.17;0.70;;;19.70;60.80;;;;;;6291077;28;20043;-67
2022/11/09 14:15:56;;;;;;;1.17;0.77;;;19.70;60.90;;;;;;6294545;28;20016;-67
2022/11/09 14:19:16;;;;;;;0.98;0.60;;;19.70;60.80;;;;;;6294603;28;20112;-67
2022/11/09 14:22:19;;;;;;;0.88;0.63;;;19.70;60.80;;;;;;6293975;28;20020;-67
2022/11/09 14:25:22;;;;;;;1.13;0.70;;;19.70;60.80;;;;;;6293889;28;20179;-66
2022/11/09 14:28:26;;;;;;;2.70;0.73;;;19.70;60.90;;;;;;6292808;28;20029;-67
2022/11/09 14:31:29;;;;;;;2.08;0.60;;;19.70;61.00;;;;;;6293576;28;20372;-67
2022/11/09 14:34:30;;;;;;;2.05;0.90;;;19.70;61.10;;;;;;6294077;28;20036;-67
2022/11/09 14:37:35;;;;;;;1.63;0.80;;;19.70;60.80;;;;;;6294002;28;20527;-66
2022/11/09 14:40:35;;;;;;;1.52;0.90;;;19.70;61.00;;;;;;6293619;28;20043;-66
2022/11/09 14:43:43;;;;;;;1.77;0.90;;;19.70;61.00;;;;;;6293983;28;20028;-66
2022/11/09 14:46:51;;;;;;;2.20;0.80;;;19.70;60.90;;;;;;6293770;28;20094;-66
2022/11/09 14:49:52;;;;;;;6.03;1.05;;;19.70;61.00;;;;;;6293977;28;20099;-67
2022/11/09 14:52:54;;;;;;;10.57;1.20;;;19.70;60.80;;;;;;6292429;28;20071;-67
2022/11/09 14:55:59;;;;;;;5.80;1.10;;;19.70;60.80;;;;;;6290386;28;20544;-67
2022/11/09 14:59:03;;;;;;;4.32;0.90;;;19.70;61.00;;;;;;6293582;28;20031;-65
2022/11/09 15:02:08;;;;;;;2.65;1.10;;;19.70;61.10;;;;;;6293380;28;20039;-67
2022/11/09 15:05:27;;;;;;;3.35;1.08;;;19.70;61.00;;;;;;6293239;28;20024;-67
2022/11/09 15:08:28;;;;;;;4.70;0.90;;;19.70;60.90;;;;;;6293017;28;20024;-67
2022/11/09 15:11:38;;;;;;;4.28;1.08;;;19.70;61.10;;;;;;6281607;28;20037;-68
2022/11/09 15:14:39;;;;;;;4.82;1.10;;;19.70;61.10;;;;;;6289803;28;20360;-67
2022/11/09 15:17:45;;;;;;;1.60;0.90;;;19.70;61.10;;;;;;6283194;28;20493;-67
2022/11/09 15:20:45;;;;;;;2.75;0.82;;;19.70;61.00;;;;;;6293152;28;20485;-65
2022/11/09 15:23:48;;;;;;;3.50;1.08;;;19.70;61.00;;;;;;6292493;28;20031;-67
2022/11/09 15:26:51;;;;;;;1.83;0.98;;;19.70;61.00;;;;;;6293058;28;20032;-66
2022/11/09 15:29:52;;;;;;;4.32;0.95;;;19.70;61.10;;;;;;6292814;28;20033;-67
2022/11/09 15:32:52;;;;;;;4.10;1.30;;;19.70;61.20;;;;;;6292091;28;20391;-67
2022/11/09 15:35:59;;;;;;;6.60;1.33;;;19.70;61.20;;;;;;6292594;28;20024;-67
2022/11/09 15:39:18;;;;;;;2.10;1.02;;;19.70;61.20;;;;;;6292104;28;20032;-68
2022/11/09 15:42:20;;;;;;;2.78;0.80;;;19.70;61.10;;;;;;6292688;28;20052;-67
2022/11/09 15:45:20;;;;;;;1.60;0.82;;;19.70;61.10;;;;;;6292473;28;20025;-67
2022/11/09 15:48:21;;;;;;;1.30;0.60;;;19.70;61.30;;;;;;6292638;28;20456;-67
2022/11/09 15:51:22;;;;;;;1.77;0.80;;;19.70;61.20;;;;;;6292142;28;20155;-66
2022/11/09 15:54:23;;;;;;;3.83;1.13;;;19.70;61.20;;;;;;6291969;28;20410;-67
2022/11/09 15:57:23;;;;;;;2.53;0.98;;;19.70;61.30;;;;;;6292159;28;20761;-67
2022/11/09 16:00:24;;;;;;;1.58;0.90;;;19.70;61.20;;;;;;6290845;28;20029;-66
2022/11/09 16:03:25;;;;;;;1.25;0.90;;;19.70;61.20;;;;;;6292428;28;20230;-66
2022/11/09 16:06:26;;;;;;;1.00;0.77;;;19.60;61.20;;;;;;6292310;28;20350;-67